QJE1562 YMLT-YSSY
Flight info
| Callsign | QJE1562 |
|---|---|
| Flight time | 1h 40m |
| Altitude | 35000 |
| Route | LT DCT MAKRL J163 CB W423 CULIN Y59 TESAT |
| Aircraft | B738/M-SDE2E3FGHIRWXY/LB1 |
Departure
| Time | 2026-05-03 23:05 |
|---|---|
| Airport | Launceston Airport (YMLT) |
Arrival
| Time | 2026-05-04 00:46 |
|---|---|
| Airport | Sydney Kingsford Smith International Airport (YSSY) |
| Time | Latitude | Longitude | Altitude | Speed | Heading |
|---|---|---|---|---|---|
| 2026-05-03 22:49 | -41.54316 | 147.20681 | 582 ft | 0 kts | 296° |
| 2026-05-03 23:00 | -41.54313 | 147.20677 | 582 ft | 2 kts | 303° |
| 2026-05-03 23:00 | -41.54302 | 147.20667 | 582 ft | 2 kts | 339° |
| 2026-05-03 23:01 | -41.54291 | 147.20696 | 583 ft | 7 kts | 112° |
| 2026-05-03 23:01 | -41.54319 | 147.20742 | 583 ft | 1 kts | 135° |
| 2026-05-03 23:01 | -41.54353 | 147.20778 | 583 ft | 11 kts | 144° |
| 2026-05-03 23:01 | -41.54435 | 147.20847 | 583 ft | 15 kts | 147° |
| 2026-05-03 23:02 | -41.54521 | 147.20921 | 589 ft | 14 kts | 147° |
| 2026-05-03 23:02 | -41.54606 | 147.20995 | 588 ft | 15 kts | 146° |
| 2026-05-03 23:02 | -41.54694 | 147.21074 | 587 ft | 15 kts | 147° |
| 2026-05-03 23:02 | -41.54781 | 147.21149 | 585 ft | 15 kts | 149° |
| 2026-05-03 23:03 | -41.54879 | 147.21230 | 582 ft | 17 kts | 147° |
| 2026-05-03 23:03 | -41.54977 | 147.21312 | 583 ft | 16 kts | 148° |
| 2026-05-03 23:03 | -41.55074 | 147.21392 | 582 ft | 16 kts | 148° |
| 2026-05-03 23:03 | -41.55169 | 147.21470 | 585 ft | 16 kts | 146° |
| 2026-05-03 23:04 | -41.55234 | 147.21567 | 587 ft | 14 kts | 98° |
| 2026-05-03 23:04 | -41.55189 | 147.21668 | 590 ft | 13 kts | 18° |
| 2026-05-03 23:04 | -41.55127 | 147.21638 | 592 ft | 0 kts | 322° |
| 2026-05-03 23:04 | -41.55124 | 147.21635 | 592 ft | 1 kts | 321° |
| 2026-05-03 23:05 | -41.55118 | 147.21628 | 591 ft | 5 kts | 320° |
| 2026-05-03 23:05 | -41.54914 | 147.21446 | 589 ft | 78 kts | 329° |
| 2026-05-03 23:05 | -41.54223 | 147.20862 | 592 ft | 155 kts | 328° |
| 2026-05-03 23:05 | -41.53237 | 147.19962 | 1232 ft | 167 kts | 322° |
| 2026-05-03 23:06 | -41.52371 | 147.19141 | 2620 ft | 144 kts | 331° |
| 2026-05-03 23:06 | -41.51333 | 147.18888 | 3213 ft | 172 kts | 9° |
| 2026-05-03 23:06 | -41.50294 | 147.19904 | 3505 ft | 208 kts | 55° |
| 2026-05-03 23:06 | -41.49886 | 147.21881 | 3720 ft | 238 kts | 84° |
| 2026-05-03 23:07 | -41.50188 | 147.24125 | 4116 ft | 257 kts | 114° |
| 2026-05-03 23:07 | -41.51397 | 147.25987 | 4463 ft | 279 kts | 151° |
| 2026-05-03 23:07 | -41.53261 | 147.26622 | 5184 ft | 280 kts | 186° |
| 2026-05-03 23:07 | -41.55073 | 147.25809 | 5934 ft | 276 kts | 220° |
| 2026-05-03 23:08 | -41.56229 | 147.23850 | 6667 ft | 269 kts | 255° |
| 2026-05-03 23:08 | -41.56349 | 147.21442 | 7422 ft | 260 kts | 289° |
| 2026-05-03 23:08 | -41.55447 | 147.19414 | 8217 ft | 256 kts | 313° |
| 2026-05-03 23:08 | -41.54186 | 147.17731 | 9018 ft | 259 kts | 327° |
| 2026-05-03 23:09 | -41.52474 | 147.17035 | 9760 ft | 266 kts | 359° |
| 2026-05-03 23:09 | -41.50612 | 147.17242 | 10417 ft | 273 kts | 1° |
| 2026-05-03 23:09 | -41.48657 | 147.17707 | 10575 ft | 302 kts | 18° |
| 2026-05-03 23:09 | -41.46855 | 147.19309 | 11028 ft | 320 kts | 45° |
| 2026-05-03 23:10 | -41.45645 | 147.21760 | 12168 ft | 311 kts | 53° |
| 2026-05-03 23:10 | -41.44278 | 147.23886 | 13246 ft | 297 kts | 37° |
| 2026-05-03 23:10 | -41.42549 | 147.25349 | 13996 ft | 295 kts | 20° |
| 2026-05-03 23:10 | -41.40604 | 147.26184 | 14678 ft | 293 kts | 13° |
| 2026-05-03 23:11 | -41.38669 | 147.26939 | 15531 ft | 287 kts | 12° |
| 2026-05-03 23:11 | -41.36750 | 147.27691 | 16246 ft | 288 kts | 12° |
| 2026-05-03 23:11 | -41.34821 | 147.28455 | 16868 ft | 291 kts | 12° |
| 2026-05-03 23:11 | -41.32881 | 147.29235 | 17554 ft | 292 kts | 12° |
| 2026-05-03 23:12 | -41.30935 | 147.30024 | 18222 ft | 292 kts | 12° |
| 2026-05-03 23:12 | -41.28991 | 147.30817 | 18803 ft | 292 kts | 12° |
| 2026-05-03 23:12 | -41.27041 | 147.31618 | 19361 ft | 294 kts | 12° |
| 2026-05-03 23:12 | -41.25085 | 147.32428 | 19952 ft | 295 kts | 12° |
| 2026-05-03 23:13 | -41.23127 | 147.33240 | 20574 ft | 294 kts | 12° |
| 2026-05-03 23:13 | -41.21173 | 147.34051 | 21195 ft | 295 kts | 12° |
| 2026-05-03 23:13 | -41.19209 | 147.34865 | 21799 ft | 296 kts | 12° |
| 2026-05-03 23:13 | -41.17237 | 147.35683 | 22360 ft | 297 kts | 12° |
| 2026-05-03 23:14 | -41.15258 | 147.36503 | 22941 ft | 299 kts | 12° |
| 2026-05-03 23:14 | -41.13273 | 147.37327 | 23492 ft | 300 kts | 12° |
| 2026-05-03 23:14 | -41.11274 | 147.38155 | 23942 ft | 302 kts | 12° |
| 2026-05-03 23:14 | -41.09263 | 147.38988 | 24342 ft | 305 kts | 12° |
| 2026-05-03 23:15 | -41.07230 | 147.39830 | 24745 ft | 307 kts | 12° |
| 2026-05-03 23:15 | -41.05176 | 147.40680 | 25101 ft | 311 kts | 12° |
| 2026-05-03 23:15 | -41.03104 | 147.41538 | 25497 ft | 313 kts | 12° |
| 2026-05-03 23:15 | -41.01018 | 147.42401 | 25926 ft | 315 kts | 12° |
| 2026-05-03 23:16 | -40.98919 | 147.43269 | 26323 ft | 317 kts | 12° |
| 2026-05-03 23:16 | -40.96803 | 147.44143 | 26714 ft | 319 kts | 12° |
| 2026-05-03 23:16 | -40.95396 | 147.44724 | 26972 ft | 321 kts | 12° |
| 2026-05-03 23:16 | -40.93258 | 147.45606 | 27356 ft | 324 kts | 12° |
| 2026-05-03 23:17 | -40.91108 | 147.46493 | 27730 ft | 326 kts | 12° |
| 2026-05-03 23:17 | -40.88937 | 147.47389 | 28097 ft | 328 kts | 12° |
| 2026-05-03 23:17 | -40.86751 | 147.48290 | 28441 ft | 330 kts | 12° |
| 2026-05-03 23:17 | -40.84550 | 147.49196 | 28796 ft | 332 kts | 12° |
| 2026-05-03 23:18 | -40.82337 | 147.50106 | 29148 ft | 334 kts | 11° |
| 2026-05-03 23:18 | -40.80108 | 147.51022 | 29503 ft | 336 kts | 11° |
| 2026-05-03 23:18 | -40.77868 | 147.51942 | 29838 ft | 338 kts | 11° |
| 2026-05-03 23:18 | -40.75610 | 147.52869 | 30136 ft | 341 kts | 12° |
| 2026-05-03 23:19 | -40.73342 | 147.53799 | 30429 ft | 342 kts | 12° |
| 2026-05-03 23:19 | -40.71070 | 147.54732 | 30726 ft | 342 kts | 12° |
| 2026-05-03 23:19 | -40.68795 | 147.55665 | 31041 ft | 343 kts | 12° |
| 2026-05-03 23:19 | -40.66509 | 147.56601 | 31310 ft | 345 kts | 12° |
| 2026-05-03 23:20 | -40.64210 | 147.57541 | 31575 ft | 347 kts | 12° |
| 2026-05-03 23:20 | -40.61901 | 147.58485 | 31855 ft | 348 kts | 12° |
| 2026-05-03 23:20 | -40.59585 | 147.59431 | 32137 ft | 349 kts | 12° |
| 2026-05-03 23:20 | -40.57258 | 147.60381 | 32386 ft | 351 kts | 12° |
| 2026-05-03 23:21 | -40.54924 | 147.61333 | 32602 ft | 352 kts | 12° |
| 2026-05-03 23:21 | -40.52582 | 147.62287 | 32880 ft | 353 kts | 12° |
| 2026-05-03 23:21 | -40.50234 | 147.63243 | 33166 ft | 354 kts | 12° |
| 2026-05-03 23:21 | -40.47871 | 147.64204 | 33381 ft | 356 kts | 12° |
| 2026-05-03 23:22 | -40.43120 | 147.66135 | 33845 ft | 359 kts | 12° |
| 2026-05-03 23:22 | -40.40734 | 147.67104 | 34054 ft | 360 kts | 12° |
| 2026-05-03 23:22 | -40.38335 | 147.68077 | 34197 ft | 362 kts | 12° |
| 2026-05-03 23:23 | -40.35925 | 147.69054 | 34356 ft | 364 kts | 12° |
| 2026-05-03 23:23 | -40.33503 | 147.70035 | 34524 ft | 365 kts | 12° |
| 2026-05-03 23:23 | -40.31068 | 147.71020 | 34690 ft | 367 kts | 12° |
| 2026-05-03 23:23 | -40.28628 | 147.72007 | 34852 ft | 368 kts | 12° |
| 2026-05-03 23:24 | -40.23690 | 147.74000 | 34953 ft | 374 kts | 12° |
| 2026-05-03 23:24 | -40.18725 | 147.76006 | 34958 ft | 372 kts | 12° |
| 2026-05-03 23:25 | -40.13803 | 147.77993 | 34957 ft | 369 kts | 12° |
| 2026-05-03 23:25 | -40.08914 | 147.79960 | 34959 ft | 367 kts | 12° |
| 2026-05-03 23:26 | -40.04040 | 147.81917 | 34970 ft | 366 kts | 12° |
| 2026-05-03 23:26 | -39.99175 | 147.83866 | 34971 ft | 366 kts | 12° |
| 2026-05-03 23:27 | -39.94306 | 147.85815 | 34971 ft | 366 kts | 12° |
| 2026-05-03 23:27 | -39.89425 | 147.87766 | 34972 ft | 368 kts | 12° |
| 2026-05-03 23:28 | -39.84521 | 147.89723 | 34971 ft | 369 kts | 12° |
| 2026-05-03 23:28 | -39.79591 | 147.91687 | 34976 ft | 372 kts | 12° |
| 2026-05-03 23:29 | -39.74634 | 147.93671 | 34969 ft | 374 kts | 12° |
| 2026-05-03 23:29 | -39.69644 | 147.95649 | 34956 ft | 375 kts | 12° |
| 2026-05-03 23:30 | -39.64643 | 147.97631 | 34975 ft | 376 kts | 12° |
| 2026-05-03 23:30 | -39.59629 | 147.99618 | 34977 ft | 377 kts | 12° |
| 2026-05-03 23:31 | -39.54608 | 148.01605 | 34971 ft | 377 kts | 12° |
| 2026-05-03 23:31 | -39.49589 | 148.03587 | 34980 ft | 377 kts | 11° |
| 2026-05-03 23:32 | -39.44572 | 148.05564 | 34981 ft | 377 kts | 11° |
| 2026-05-03 23:32 | -39.39557 | 148.07538 | 34982 ft | 377 kts | 11° |
| 2026-05-03 23:33 | -39.34547 | 148.09509 | 34965 ft | 376 kts | 11° |
| 2026-05-03 23:33 | -39.29538 | 148.11476 | 34979 ft | 376 kts | 11° |
| 2026-05-03 23:34 | -39.24529 | 148.13441 | 34988 ft | 376 kts | 11° |
| 2026-05-03 23:34 | -39.19514 | 148.15405 | 34970 ft | 377 kts | 11° |
| 2026-05-03 23:35 | -39.14496 | 148.17365 | 34980 ft | 377 kts | 11° |
| 2026-05-03 23:35 | -39.09471 | 148.19325 | 34989 ft | 378 kts | 11° |
| 2026-05-03 23:36 | -39.04430 | 148.21289 | 34988 ft | 379 kts | 11° |
| 2026-05-03 23:36 | -38.99380 | 148.23256 | 34980 ft | 380 kts | 11° |
| 2026-05-03 23:37 | -38.94314 | 148.25224 | 34991 ft | 381 kts | 11° |
| 2026-05-03 23:37 | -38.89241 | 148.27193 | 34993 ft | 382 kts | 11° |
| 2026-05-03 23:38 | -38.84147 | 148.29167 | 34985 ft | 383 kts | 11° |
| 2026-05-03 23:38 | -38.79048 | 148.31139 | 35000 ft | 383 kts | 11° |
| 2026-05-03 23:39 | -38.73936 | 148.33112 | 34998 ft | 384 kts | 11° |
| 2026-05-03 23:39 | -38.68821 | 148.35085 | 34986 ft | 384 kts | 11° |
| 2026-05-03 23:40 | -38.63741 | 148.37043 | 34997 ft | 384 kts | 11° |
| 2026-05-03 23:40 | -38.58631 | 148.39009 | 34995 ft | 383 kts | 11° |
| 2026-05-03 23:41 | -38.53530 | 148.40969 | 34993 ft | 382 kts | 11° |
| 2026-05-03 23:41 | -38.48424 | 148.42798 | 34996 ft | 378 kts | 6° |
| 2026-05-03 23:42 | -38.43272 | 148.44090 | 34991 ft | 377 kts | 5° |
| 2026-05-03 23:42 | -38.38128 | 148.45344 | 34997 ft | 376 kts | 5° |
| 2026-05-03 23:43 | -38.33002 | 148.46605 | 34999 ft | 375 kts | 5° |
| 2026-05-03 23:43 | -38.27882 | 148.47874 | 34970 ft | 374 kts | 5° |
| 2026-05-03 23:44 | -38.22756 | 148.49147 | 35001 ft | 377 kts | 5° |
| 2026-05-03 23:44 | -38.17585 | 148.50430 | 35008 ft | 381 kts | 5° |
| 2026-05-03 23:45 | -38.12361 | 148.51728 | 35006 ft | 384 kts | 5° |
| 2026-05-03 23:45 | -38.07117 | 148.53029 | 34996 ft | 384 kts | 5° |
| 2026-05-03 23:46 | -38.01867 | 148.54330 | 34998 ft | 384 kts | 5° |
| 2026-05-03 23:46 | -37.96638 | 148.55622 | 34999 ft | 382 kts | 5° |
| 2026-05-03 23:47 | -37.91429 | 148.56909 | 34990 ft | 380 kts | 5° |
| 2026-05-03 23:47 | -37.86260 | 148.58184 | 34998 ft | 377 kts | 5° |
| 2026-05-03 23:48 | -37.81119 | 148.59448 | 34999 ft | 375 kts | 5° |
| 2026-05-03 23:48 | -37.76006 | 148.60705 | 35006 ft | 374 kts | 5° |
| 2026-05-03 23:49 | -37.70909 | 148.61955 | 34993 ft | 373 kts | 5° |
| 2026-05-03 23:49 | -37.65818 | 148.63201 | 35004 ft | 373 kts | 5° |
| 2026-05-03 23:50 | -37.61576 | 148.64237 | 35007 ft | 374 kts | 5° |
| 2026-05-03 23:50 | -37.55581 | 148.65701 | 35005 ft | 377 kts | 5° |
| 2026-05-03 23:51 | -37.50418 | 148.66961 | 35000 ft | 379 kts | 5° |
| 2026-05-03 23:51 | -37.45222 | 148.68226 | 35005 ft | 381 kts | 5° |
| 2026-05-03 23:52 | -37.39991 | 148.69501 | 35009 ft | 384 kts | 5° |
| 2026-05-03 23:52 | -37.34735 | 148.70778 | 34994 ft | 386 kts | 5° |
| 2026-05-03 23:53 | -37.29450 | 148.72061 | 35004 ft | 388 kts | 5° |
| 2026-05-03 23:53 | -37.24143 | 148.73346 | 35004 ft | 389 kts | 5° |
| 2026-05-03 23:54 | -37.18831 | 148.74631 | 35014 ft | 389 kts | 5° |
| 2026-05-03 23:54 | -37.13520 | 148.75913 | 34983 ft | 388 kts | 5° |
| 2026-05-03 23:55 | -37.08225 | 148.77190 | 35009 ft | 387 kts | 5° |
| 2026-05-03 23:55 | -37.02936 | 148.78465 | 35010 ft | 387 kts | 5° |
| 2026-05-03 23:56 | -36.97641 | 148.79738 | 35008 ft | 387 kts | 5° |
| 2026-05-03 23:56 | -36.92345 | 148.81009 | 35001 ft | 388 kts | 5° |
| 2026-05-03 23:57 | -36.87041 | 148.82281 | 35011 ft | 388 kts | 5° |
| 2026-05-03 23:57 | -36.81727 | 148.83554 | 35013 ft | 389 kts | 5° |
| 2026-05-03 23:58 | -36.77299 | 148.84613 | 34975 ft | 390 kts | 5° |
| 2026-05-03 23:58 | -36.71964 | 148.85887 | 35006 ft | 391 kts | 5° |
| 2026-05-03 23:59 | -36.66611 | 148.87163 | 35021 ft | 392 kts | 5° |
| 2026-05-03 23:59 | -36.61233 | 148.88445 | 35015 ft | 394 kts | 5° |
| 2026-05-04 00:00 | -36.55838 | 148.89730 | 35006 ft | 395 kts | 5° |
| 2026-05-04 00:00 | -36.50426 | 148.91016 | 35012 ft | 396 kts | 5° |
| 2026-05-04 00:01 | -36.45005 | 148.92301 | 35031 ft | 397 kts | 5° |
| 2026-05-04 00:01 | -36.39570 | 148.93588 | 35023 ft | 398 kts | 5° |
| 2026-05-04 00:02 | -36.34121 | 148.94878 | 35023 ft | 399 kts | 5° |
| 2026-05-04 00:02 | -36.28669 | 148.96165 | 35012 ft | 399 kts | 5° |
| 2026-05-04 00:03 | -36.23223 | 148.97450 | 35022 ft | 398 kts | 5° |
| 2026-05-04 00:03 | -36.17781 | 148.98732 | 35011 ft | 398 kts | 5° |
| 2026-05-04 00:04 | -36.12352 | 149.00010 | 35019 ft | 397 kts | 5° |
| 2026-05-04 00:04 | -36.06933 | 149.01282 | 35031 ft | 396 kts | 5° |
| 2026-05-04 00:05 | -36.01521 | 149.02550 | 35031 ft | 395 kts | 5° |
| 2026-05-04 00:05 | -35.96122 | 149.03815 | 35031 ft | 395 kts | 5° |
| 2026-05-04 00:06 | -35.90733 | 149.05076 | 35029 ft | 394 kts | 5° |
| 2026-05-04 00:06 | -35.85346 | 149.06334 | 35043 ft | 394 kts | 5° |
| 2026-05-04 00:07 | -35.79952 | 149.07591 | 35039 ft | 394 kts | 5° |
| 2026-05-04 00:07 | -35.74564 | 149.08845 | 35033 ft | 395 kts | 5° |
| 2026-05-04 00:08 | -35.69162 | 149.10101 | 35059 ft | 396 kts | 5° |
| 2026-05-04 00:08 | -35.63744 | 149.11359 | 35060 ft | 397 kts | 5° |
| 2026-05-04 00:09 | -35.58318 | 149.12620 | 35068 ft | 397 kts | 5° |
| 2026-05-04 00:09 | -35.52884 | 149.13879 | 35068 ft | 398 kts | 5° |
| 2026-05-04 00:10 | -35.47442 | 149.15138 | 35068 ft | 398 kts | 5° |
| 2026-05-04 00:10 | -35.41996 | 149.16396 | 35076 ft | 399 kts | 5° |
| 2026-05-04 00:11 | -35.36534 | 149.17656 | 35070 ft | 399 kts | 5° |
| 2026-05-04 00:11 | -35.31072 | 149.18915 | 35075 ft | 400 kts | 5° |
| 2026-05-04 00:12 | -35.25619 | 149.20375 | 35075 ft | 404 kts | 9° |
| 2026-05-04 00:12 | -35.20224 | 149.22348 | 35077 ft | 405 kts | 11° |
| 2026-05-04 00:13 | -35.14825 | 149.24355 | 35055 ft | 406 kts | 11° |
| 2026-05-04 00:13 | -35.09418 | 149.26324 | 35069 ft | 405 kts | 10° |
| 2026-05-04 00:14 | -35.04040 | 149.28259 | 35073 ft | 406 kts | 10° |
| 2026-05-04 00:14 | -34.98645 | 149.30195 | 34912 ft | 401 kts | 10° |
| 2026-05-04 00:15 | -34.95986 | 149.31149 | 34636 ft | 394 kts | 10° |
| 2026-05-04 00:15 | -34.93369 | 149.32087 | 34263 ft | 391 kts | 11° |
| 2026-05-04 00:15 | -34.90769 | 149.33016 | 33905 ft | 388 kts | 11° |
| 2026-05-04 00:15 | -34.88192 | 149.33936 | 33494 ft | 385 kts | 11° |
| 2026-05-04 00:16 | -34.85632 | 149.34851 | 33111 ft | 382 kts | 11° |
| 2026-05-04 00:16 | -34.83095 | 149.35757 | 32741 ft | 379 kts | 11° |
| 2026-05-04 00:16 | -34.80574 | 149.36657 | 32382 ft | 376 kts | 11° |
| 2026-05-04 00:16 | -34.78076 | 149.37547 | 32023 ft | 373 kts | 11° |
| 2026-05-04 00:17 | -34.75668 | 149.38745 | 31622 ft | 380 kts | 26° |
| 2026-05-04 00:17 | -34.73592 | 149.40766 | 31377 ft | 385 kts | 39° |
| 2026-05-04 00:17 | -34.71965 | 149.43361 | 31115 ft | 390 kts | 54° |
| 2026-05-04 00:17 | -34.70673 | 149.46254 | 30812 ft | 389 kts | 56° |
| 2026-05-04 00:18 | -34.69437 | 149.49175 | 30465 ft | 388 kts | 56° |
| 2026-05-04 00:18 | -34.68213 | 149.52090 | 30123 ft | 386 kts | 56° |
| 2026-05-04 00:18 | -34.66992 | 149.54973 | 29732 ft | 384 kts | 56° |
| 2026-05-04 00:18 | -34.65762 | 149.57841 | 29350 ft | 381 kts | 55° |
| 2026-05-04 00:19 | -34.64534 | 149.60680 | 28976 ft | 378 kts | 55° |
| 2026-05-04 00:19 | -34.63308 | 149.63493 | 28639 ft | 375 kts | 55° |
| 2026-05-04 00:19 | -34.62091 | 149.66277 | 28279 ft | 372 kts | 55° |
| 2026-05-04 00:19 | -34.60876 | 149.69048 | 27915 ft | 370 kts | 55° |
| 2026-05-04 00:20 | -34.59670 | 149.71794 | 27563 ft | 368 kts | 55° |
| 2026-05-04 00:20 | -34.58471 | 149.74524 | 27222 ft | 365 kts | 54° |
| 2026-05-04 00:20 | -34.57278 | 149.77237 | 26890 ft | 363 kts | 54° |
| 2026-05-04 00:20 | -34.56092 | 149.79932 | 26551 ft | 362 kts | 54° |
| 2026-05-04 00:21 | -34.54911 | 149.82616 | 26215 ft | 360 kts | 54° |
| 2026-05-04 00:21 | -34.53731 | 149.85294 | 25868 ft | 359 kts | 54° |
| 2026-05-04 00:21 | -34.52558 | 149.87959 | 25530 ft | 358 kts | 54° |
| 2026-05-04 00:21 | -34.51384 | 149.90617 | 25185 ft | 357 kts | 54° |
| 2026-05-04 00:22 | -34.50217 | 149.93258 | 24864 ft | 356 kts | 54° |
| 2026-05-04 00:22 | -34.49044 | 149.95910 | 24462 ft | 357 kts | 54° |
| 2026-05-04 00:22 | -34.47869 | 149.98564 | 24111 ft | 357 kts | 54° |
| 2026-05-04 00:22 | -34.46694 | 150.01218 | 23759 ft | 358 kts | 54° |
| 2026-05-04 00:23 | -34.45521 | 150.03871 | 23392 ft | 357 kts | 54° |
| 2026-05-04 00:23 | -34.44351 | 150.06514 | 23019 ft | 355 kts | 54° |
| 2026-05-04 00:23 | -34.43185 | 150.09145 | 22678 ft | 354 kts | 54° |
| 2026-05-04 00:23 | -34.42026 | 150.11760 | 22328 ft | 352 kts | 54° |
| 2026-05-04 00:24 | -34.40869 | 150.14367 | 21989 ft | 350 kts | 54° |
| 2026-05-04 00:24 | -34.39722 | 150.16953 | 21660 ft | 348 kts | 54° |
| 2026-05-04 00:24 | -34.38577 | 150.19525 | 21330 ft | 346 kts | 55° |
| 2026-05-04 00:24 | -34.37440 | 150.22080 | 21003 ft | 344 kts | 55° |
| 2026-05-04 00:25 | -34.36308 | 150.24620 | 20686 ft | 342 kts | 55° |
| 2026-05-04 00:25 | -34.35181 | 150.27149 | 20359 ft | 341 kts | 55° |
| 2026-05-04 00:25 | -34.34060 | 150.29666 | 20031 ft | 339 kts | 55° |
| 2026-05-04 00:25 | -34.32943 | 150.32171 | 19722 ft | 338 kts | 54° |
| 2026-05-04 00:26 | -34.31826 | 150.34667 | 19402 ft | 337 kts | 54° |
| 2026-05-04 00:26 | -34.30715 | 150.37156 | 19075 ft | 336 kts | 54° |
| 2026-05-04 00:26 | -34.29608 | 150.39629 | 18767 ft | 334 kts | 54° |
| 2026-05-04 00:26 | -34.28499 | 150.42094 | 18448 ft | 333 kts | 55° |
| 2026-05-04 00:27 | -34.27407 | 150.44554 | 18189 ft | 329 kts | 55° |
| 2026-05-04 00:27 | -34.26334 | 150.46984 | 17876 ft | 327 kts | 56° |
| 2026-05-04 00:27 | -34.25266 | 150.49399 | 17566 ft | 325 kts | 56° |
| 2026-05-04 00:27 | -34.24203 | 150.51798 | 17252 ft | 323 kts | 56° |
| 2026-05-04 00:28 | -34.23142 | 150.54186 | 16930 ft | 322 kts | 56° |
| 2026-05-04 00:28 | -34.22088 | 150.56558 | 16621 ft | 320 kts | 56° |
| 2026-05-04 00:28 | -34.21039 | 150.58918 | 16300 ft | 318 kts | 56° |
| 2026-05-04 00:28 | -34.19994 | 150.61266 | 15987 ft | 317 kts | 56° |
| 2026-05-04 00:29 | -34.18952 | 150.63605 | 15672 ft | 316 kts | 56° |
| 2026-05-04 00:29 | -34.17912 | 150.65938 | 15359 ft | 315 kts | 56° |
| 2026-05-04 00:29 | -34.16877 | 150.68260 | 15037 ft | 313 kts | 56° |
| 2026-05-04 00:29 | -34.15845 | 150.70572 | 14763 ft | 312 kts | 56° |
| 2026-05-04 00:30 | -34.14812 | 150.72885 | 14445 ft | 314 kts | 56° |
| 2026-05-04 00:30 | -34.13773 | 150.75209 | 14131 ft | 315 kts | 57° |
| 2026-05-04 00:30 | -34.12731 | 150.77537 | 13768 ft | 316 kts | 57° |
| 2026-05-04 00:30 | -34.11687 | 150.79871 | 13427 ft | 316 kts | 57° |
| 2026-05-04 00:31 | -34.10646 | 150.82199 | 13095 ft | 314 kts | 57° |
| 2026-05-04 00:31 | -34.09617 | 150.84502 | 12771 ft | 309 kts | 57° |
| 2026-05-04 00:31 | -34.08603 | 150.86768 | 12459 ft | 304 kts | 57° |
| 2026-05-04 00:31 | -34.07604 | 150.88996 | 12142 ft | 299 kts | 57° |
| 2026-05-04 00:32 | -34.06622 | 150.91182 | 11861 ft | 294 kts | 57° |
| 2026-05-04 00:32 | -34.05653 | 150.93338 | 11597 ft | 289 kts | 56° |
| 2026-05-04 00:32 | -34.04709 | 150.95437 | 11429 ft | 283 kts | 57° |
| 2026-05-04 00:32 | -34.03772 | 150.97518 | 11187 ft | 282 kts | 56° |
| 2026-05-04 00:33 | -34.02837 | 150.99592 | 10922 ft | 283 kts | 57° |
| 2026-05-04 00:33 | -34.00951 | 151.03781 | 10255 ft | 290 kts | 57° |
| 2026-05-04 00:33 | -34.00002 | 151.05897 | 10055 ft | 288 kts | 57° |
| 2026-05-04 00:34 | -33.99051 | 151.08005 | 9770 ft | 287 kts | 57° |
| 2026-05-04 00:34 | -33.98111 | 151.10086 | 9480 ft | 285 kts | 57° |
| 2026-05-04 00:34 | -33.97165 | 151.12186 | 9203 ft | 283 kts | 59° |
| 2026-05-04 00:34 | -33.96624 | 151.14474 | 8872 ft | 290 kts | 86° |
| 2026-05-04 00:35 | -33.97051 | 151.16822 | 8608 ft | 296 kts | 114° |
| 2026-05-04 00:35 | -33.98380 | 151.18769 | 8105 ft | 304 kts | 145° |
| 2026-05-04 00:35 | -34.00310 | 151.19746 | 7790 ft | 302 kts | 168° |
| 2026-05-04 00:35 | -34.02334 | 151.20214 | 7478 ft | 299 kts | 171° |
| 2026-05-04 00:36 | -34.04370 | 151.20636 | 7178 ft | 295 kts | 171° |
| 2026-05-04 00:36 | -34.06372 | 151.21055 | 6963 ft | 289 kts | 170° |
| 2026-05-04 00:36 | -34.08351 | 151.21481 | 6628 ft | 290 kts | 170° |
| 2026-05-04 00:36 | -34.10360 | 151.21923 | 6092 ft | 296 kts | 170° |
| 2026-05-04 00:37 | -34.12427 | 151.22385 | 5554 ft | 301 kts | 170° |
| 2026-05-04 00:37 | -34.14504 | 151.22853 | 5019 ft | 305 kts | 171° |
| 2026-05-04 00:37 | -34.16575 | 151.23322 | 4483 ft | 309 kts | 171° |
| 2026-05-04 00:37 | -34.18709 | 151.23619 | 3924 ft | 308 kts | 189° |
| 2026-05-04 00:38 | -34.20654 | 151.22734 | 3380 ft | 296 kts | 223° |
| 2026-05-04 00:38 | -34.21914 | 151.20883 | 3051 ft | 277 kts | 251° |
| 2026-05-04 00:38 | -34.22368 | 151.18750 | 2963 ft | 251 kts | 273° |
| 2026-05-04 00:38 | -34.22144 | 151.16774 | 2934 ft | 227 kts | 293° |
| 2026-05-04 00:39 | -34.21433 | 151.15188 | 2945 ft | 205 kts | 311° |
| 2026-05-04 00:39 | -34.20485 | 151.14023 | 2950 ft | 185 kts | 321° |
| 2026-05-04 00:39 | -34.19462 | 151.13239 | 2931 ft | 165 kts | 335° |
| 2026-05-04 00:39 | -34.18401 | 151.13228 | 2958 ft | 156 kts | 18° |
| 2026-05-04 00:40 | -34.17443 | 151.13798 | 2949 ft | 152 kts | 17° |
| 2026-05-04 00:40 | -34.16477 | 151.14356 | 2976 ft | 153 kts | 17° |
| 2026-05-04 00:40 | -34.15542 | 151.14900 | 2963 ft | 147 kts | 15° |
| 2026-05-04 00:40 | -34.14632 | 151.15424 | 2944 ft | 143 kts | 14° |
| 2026-05-04 00:41 | -34.13740 | 151.15937 | 2961 ft | 141 kts | 15° |
| 2026-05-04 00:41 | -34.12848 | 151.16449 | 2948 ft | 143 kts | 14° |
| 2026-05-04 00:41 | -34.11944 | 151.16967 | 2859 ft | 147 kts | 14° |
| 2026-05-04 00:41 | -34.11321 | 151.17320 | 2744 ft | 146 kts | 14° |
| 2026-05-04 00:42 | -34.10115 | 151.17981 | 2486 ft | 140 kts | 12° |
| 2026-05-04 00:42 | -34.09474 | 151.18305 | 2449 ft | 162 kts | 14° |
| 2026-05-04 00:42 | -34.08352 | 151.18860 | 2305 ft | 181 kts | 16° |
| 2026-05-04 00:42 | -34.07273 | 151.19558 | 2106 ft | 172 kts | 30° |
| 2026-05-04 00:43 | -34.06419 | 151.20473 | 1948 ft | 152 kts | 21° |
| 2026-05-04 00:43 | -34.05553 | 151.20448 | 1885 ft | 124 kts | 323° |
| 2026-05-04 00:43 | -34.04821 | 151.19852 | 1675 ft | 128 kts | 339° |
| 2026-05-04 00:43 | -34.03943 | 151.19898 | 1543 ft | 129 kts | 355° |
| 2026-05-04 00:44 | -34.03067 | 151.19736 | 1364 ft | 130 kts | 347° |
| 2026-05-04 00:44 | -34.02180 | 151.19544 | 1204 ft | 133 kts | 343° |
| 2026-05-04 00:44 | -34.01280 | 151.19321 | 1041 ft | 133 kts | 343° |
| 2026-05-04 00:44 | -34.00357 | 151.19129 | 828 ft | 134 kts | 348° |
| 2026-05-04 00:45 | -33.99482 | 151.18786 | 669 ft | 135 kts | 341° |
| 2026-05-04 00:45 | -33.98564 | 151.18607 | 501 ft | 131 kts | 347° |
| 2026-05-04 00:45 | -33.97659 | 151.18314 | 340 ft | 149 kts | 343° |
| 2026-05-04 00:45 | -33.96543 | 151.18105 | 102 ft | 168 kts | 349° |
| 2026-05-04 00:46 | -33.95470 | 151.17805 | 28 ft | 140 kts | 354° |
| 2026-05-04 00:46 | -33.94886 | 151.17661 | 28 ft | 44 kts | 346° |
| 2026-05-04 00:46 | -33.94607 | 151.17583 | 29 ft | 38 kts | 348° |
| 2026-05-04 00:46 | -33.94425 | 151.17543 | 29 ft | 23 kts | 351° |
| 2026-05-04 00:47 | -33.94262 | 151.17511 | 29 ft | 27 kts | 353° |
| 2026-05-04 00:47 | -33.94057 | 151.17451 | 26 ft | 33 kts | 343° |
| 2026-05-04 00:47 | -33.93903 | 151.17493 | 26 ft | 18 kts | 63° |
| 2026-05-04 00:47 | -33.93840 | 151.17598 | 28 ft | 16 kts | 12° |
| 2026-05-04 00:48 | -33.93724 | 151.17566 | 28 ft | 18 kts | 342° |
| 2026-05-04 00:48 | -33.93591 | 151.17525 | 28 ft | 22 kts | 348° |
| 2026-05-04 00:48 | -33.93455 | 151.17501 | 29 ft | 18 kts | 354° |
| 2026-05-04 00:48 | -33.93372 | 151.17533 | 29 ft | 14 kts | 57° |
| 2026-05-04 00:49 | -33.93272 | 151.17563 | 29 ft | 18 kts | 345° |
| 2026-05-04 00:49 | -33.93145 | 151.17532 | 29 ft | 13 kts | 348° |
| 2026-05-04 00:49 | -33.93048 | 151.17534 | 29 ft | 16 kts | 17° |
| 2026-05-04 00:49 | -33.93010 | 151.17630 | 29 ft | 13 kts | 103° |
| 2026-05-04 00:50 | -33.93046 | 151.17742 | 29 ft | 12 kts | 110° |
| 2026-05-04 00:50 | -33.93087 | 151.17818 | 29 ft | 11 kts | 182° |
| 2026-05-04 00:50 | -33.93138 | 151.17803 | 29 ft | 4 kts | 193° |
| 2026-05-04 00:50 | -33.93139 | 151.17802 | 29 ft | 0 kts | 193° |